METAR stanice u blizini

 

LYBE - Beograd / Surčin, Srbija
Ažurirano: 25/09/2021 14:30
Vedro
Vedro
 Pravac vetra J
Vetar: J 9 km/h
Temperatura: 26°C
Tačka rose: 11°C
Vlažnost: 39%
Pritisak: 1021 hPa
Pregled: Vedro
Vidljivost: greater than 10 km
2021/09/25 12:30 LYBE 251230Z 17005KT 080V230 CAVOK 26/11 Q1021 NOSIG
LYBT - Beograd / Batajnica, Srbija
Ažurirano: 25/09/2021 14:30
Vedro
Vedro
 Pravac vetra varies
Vetar: varies 6 km/h
Temperatura: 26°C
Tačka rose: 11°C
Vlažnost: 39%
Pritisak: 1021 hPa
Pregled: Vedro
Vidljivost: greater than 10 km
2021/09/25 12:30 LYBT 251230Z VRB03KT CAVOK 26/11 Q1021 NOSIG
LYVR - Vršac, Srbija
Ažurirano: 25/09/2021 14:30
Vedro
Vedro
 Pravac vetra SZ
Vetar: SZ 13 km/h
Temperatura: 26°C
Tačka rose: 10°C
Vlažnost: 37%
Pritisak: 1021 hPa
Pregled: Vedro
Vidljivost: greater than 10 km
2021/09/25 12:30 LYVR 251230Z 32007KT 280V340 CAVOK 26/10 Q1021
 
LYKV - Lađevci, Srbija
Ažurirano: 25/09/2021 14:30
Vedro
Vedro
 Pravac vetra SSZ
Vetar: SSZ 2 km/h
Temperatura: 26°C
Tačka rose: 10°C
Vlažnost: 37%
Pritisak: 1021 hPa
Pregled: Vedro
Vidljivost: greater than 10 km
2021/09/25 12:30 LYKV 251230Z 33001KT CAVOK 26/10 Q1021 NOSIG
LYNI - Niš, Srbija
Ažurirano: 25/09/2021 14:00
Vedro
Vedro
 Pravac vetra varies
Vetar: varies 6 km/h
Temperatura: 25°C
Tačka rose: 9°C
Vlažnost: 36%
Pritisak: 1021 hPa
Pregled: Vedro
Vidljivost: greater than 10 km
2021/09/25 12:00 LYNI 251200Z VRB03KT CAVOK 25/09 Q1021 NOSIG
BKPR - Priština, Srbija
Ažurirano: 25/09/2021 14:30
Vedro
Vedro
 Pravac vetra SSI
Vetar: SSI 9 km/h
Temperatura: 25°C
Tačka rose: 10°C
Vlažnost: 39%
Pritisak: 1022 hPa
Pregled: Vedro
Vidljivost: greater than 10 km
2021/09/25 12:30 BKPR 251230Z 02005KT 350V070 CAVOK 25/10 Q1022 NOSIG
 
LHPP - Pecs / Pogany, Hungary
Ažurirano: 25/09/2021 14:15
Vedro
Vedro
 Pravac vetra JJZ
Vetar: JJZ 9 km/h
Temperatura: 24°C
Tačka rose: 13°C
Vlažnost: 50%
Pritisak: 1021 hPa
Pregled: Vedro
Vidljivost: greater than 10 km
2021/09/25 12:15 LHPP 251215Z AUTO 21005KT 150V260 CAVOK 24/13 Q1021
LHUD - Szeged, Hungary
Ažurirano: 04/07/2019 01:45
NOT Current
Vedro
Vedro
 Pravac vetra S
Vetar: S 7 km/h
Temperatura: 18°C
Tačka rose: 13°C
Vlažnost: 73%
Pritisak: 1019 hPa
Pregled: Vedro
Vidljivost: greater than 10 km
2019/07/03 23:45 LHUD 032345Z 35004KT CAVOK 18/13 Q1019
LRTR - Timisoara, Romania
Ažurirano: 25/09/2021 14:30
Vedro
Vedro
 Pravac vetra Z
Vetar: Z 15 km/h
Temperatura: 25°C
Tačka rose: 10°C
Vlažnost: 39%
Pritisak: 1021 hPa
Pregled: Vedro
Vidljivost: greater than 10 km
2021/09/25 12:30 LRTR 251230Z 27008KT 220V290 CAVOK 25/10 Q1021
 
LRCV - Craiova, Romania
Ažurirano: 25/09/2021 14:30
Vedro
Vedro
 Pravac vetra Z
Vetar: Z 11 km/h
Temperatura: 26°C
Tačka rose: 6°C
Vlažnost: 28%
Pritisak: 1019 hPa
Pregled: Vedro
Vidljivost: greater than 10 km
2021/09/25 12:30 LRCV 251230Z 28006KT 220V350 CAVOK 26/06 Q1019
LBSF - Sofia, Bulgaria
Ažurirano: 25/09/2021 14:30
Vedro
Vedro
 Pravac vetra Z
Vetar: Z 15 km/h
Temperatura: 25°C
Tačka rose: 10°C
Vlažnost: 39%
Pritisak: 1021 hPa
Pregled: Vedro
Vidljivost: greater than 10 km
2021/09/25 12:30 LBSF 251230Z 28008KT 240V320 CAVOK 25/10 Q1021 NOSIG
LWSK - Skoplje, Makedonija
Ažurirano: 25/09/2021 14:30
Vedro
Vedro
 Pravac vetra varies
Vetar: varies 4 km/h
Temperatura: 27°C
Tačka rose: 6°C
Vlažnost: 26%
Pritisak: 1020 hPa
Pregled: Vedro
Vidljivost: greater than 10 km
2021/09/25 12:30 LWSK 251230Z VRB02KT CAVOK 27/06 Q1020 NOSIG
 
LYPG - Podgorica, Crna Gora
Ažurirano: 25/09/2021 14:00
Vedro
Vedro
 Pravac vetra JJI
Vetar: JJI 6 km/h
Temperatura: 26°C
Tačka rose: 9°C
Vlažnost: 34%
Pritisak: 1021 hPa
Pregled: Vedro
Vidljivost: greater than 10 km
2021/09/25 12:00 LYPG 251200Z 16003KT 080V250 CAVOK 26/09 Q1021 NOSIG
LQSA - Sarajevo, Bosna i Hercegovina
Ažurirano: 25/09/2021 14:30
Vedro
Vedro
 Pravac vetra varies
Vetar: varies 2 km/h
Temperatura: 24°C
Tačka rose: 12°C
Vlažnost: 47%
Pritisak: 1021 hPa
Pregled: Vedro
Vidljivost: greater than 10 km
2021/09/25 12:30 LQSA 251230Z VRB01KT CAVOK 24/12 Q1021 NOSIG
LDOS - Osijek, Hrvatksa
Ažurirano: 25/09/2021 14:30
Vedro
Vedro
 Pravac vetra JZ
Vetar: JZ 13 km/h
Temperatura: 26°C
Tačka rose: 12°C
Vlažnost: 42%
Pritisak: 1020 hPa
Pregled: Vedro
Vidljivost: greater than 10 km
2021/09/25 12:30 LDOS 251230Z 22007KT 190V260 CAVOK 26/12 Q1020